Barsalogho Airport


Codes: DFCB/
Name: Barsalogho Airport
City: Barsalogho
Country: Burkina Faso
Elevation: 1083 ft.

Photos at Barsalogho Airport


   Photos courtesy of SpottingLog. You can add your own sightings and photos by signing up for a free trial today.



No photos found.

Weather at Barsalogho Airport


Time (UTC)DescriptionTempratureWindCloud coverageVisibilityPressureHumidity
26-Jun-2024 00:00Broken Clouds34°C9 mph, S59%10000m1009hPa36%
26-Jun-2024 03:00Broken Clouds33°C11 mph, S70%10000m1009hPa38%
26-Jun-2024 06:00Broken Clouds31°C9 mph, SW56%10000m1010hPa44%
26-Jun-2024 09:00Scattered Clouds34°C11 mph, SW46%10000m1011hPa40%
26-Jun-2024 12:00Broken Clouds37°C13 mph, SW55%10000m1008hPa32%
26-Jun-2024 15:00Scattered Clouds39°C11 mph, S39%10000m1006hPa25%
26-Jun-2024 18:00Scattered Clouds38°C9 mph, SE39%10000m1005hPa26%
26-Jun-2024 21:00Scattered Clouds36°C9 mph, SE39%10000m1007hPa31%
27-Jun-2024 00:00Scattered Clouds32°C18 mph, SE32%10000m1008hPa48%
27-Jun-2024 03:00Overcast Clouds29°C18 mph, SW97%10000m1009hPa59%
27-Jun-2024 06:00Broken Clouds28°C13 mph, SW68%10000m1010hPa63%
27-Jun-2024 09:00Broken Clouds31°C16 mph, SW66%10000m1011hPa50%
27-Jun-2024 12:00Broken Clouds36°C11 mph, SW65%10000m1009hPa34%
27-Jun-2024 15:00Few Clouds39°C7 mph, S15%10000m1007hPa27%
27-Jun-2024 18:00Scattered Clouds38°C7 mph, S40%10000m1006hPa27%
27-Jun-2024 21:00Light Rain36°C9 mph, S88%10000m1008hPa32%
28-Jun-2024 00:00Overcast Clouds33°C16 mph, SW94%10000m1009hPa41%
28-Jun-2024 03:00Light Rain32°C11 mph, SW100%10000m1008hPa46%
28-Jun-2024 06:00Overcast Clouds29°C13 mph, SW85%10000m1009hPa54%
28-Jun-2024 09:00Light Rain31°C13 mph, SE76%10000m1013hPa49%
28-Jun-2024 12:00Overcast Clouds35°C18 mph, SW88%10000m1009hPa38%
28-Jun-2024 15:00Overcast Clouds39°C9 mph, SW100%10000m1007hPa25%
28-Jun-2024 18:00Light Rain37°C9 mph, S86%10000m1007hPa28%
28-Jun-2024 21:00Light Rain34°C11 mph, S41%10000m1008hPa37%
29-Jun-2024 00:00Scattered Clouds32°C11 mph, S25%10000m1008hPa43%
29-Jun-2024 03:00Clear Sky31°C18 mph, S5%10000m1008hPa51%
29-Jun-2024 06:00Scattered Clouds28°C18 mph, S32%10000m1009hPa61%
29-Jun-2024 09:00Overcast Clouds31°C20 mph, SW99%10000m1010hPa51%
29-Jun-2024 12:00Broken Clouds36°C16 mph, SW77%10000m1009hPa38%
29-Jun-2024 15:00Few Clouds38°C11 mph, SW11%10000m1007hPa32%
29-Jun-2024 18:00Light Rain36°C13 mph, S39%10000m1006hPa34%
29-Jun-2024 21:00Light Rain35°C11 mph, S11%10000m1007hPa38%
30-Jun-2024 00:00Few Clouds33°C13 mph, S15%10000m1009hPa44%
30-Jun-2024 03:00Moderate Rain28°C11 mph, NW35%10000m1010hPa62%
30-Jun-2024 06:00Light Rain25°C11 mph, W62%10000m1011hPa67%
30-Jun-2024 09:00Overcast Clouds30°C13 mph, SW99%10000m1012hPa51%
30-Jun-2024 12:00Overcast Clouds35°C13 mph, SW92%10000m1011hPa40%
30-Jun-2024 15:00Light Rain35°C0 mph, NW100%10000m1009hPa39%
30-Jun-2024 18:00Heavy Intensity Rain24°C20 mph, SE100%3455m1011hPa84%
30-Jun-2024 21:00Moderate Rain26°C18 mph, SW100%10000m1010hPa68%